createdAt,value
2022-08-11T00:01:23.895Z,18.80
2022-08-11T00:03:55.178Z,18.80
2022-08-11T00:06:35.566Z,18.70
2022-08-11T00:09:07.073Z,18.80
2022-08-11T00:11:39.723Z,18.80
2022-08-11T00:14:37.156Z,18.80
2022-08-11T00:17:12.083Z,18.90
2022-08-11T00:20:12.751Z,18.90
2022-08-11T00:22:35.510Z,18.80
2022-08-11T00:25:12.887Z,18.80
2022-08-11T00:27:41.917Z,18.80
2022-08-11T00:30:12.235Z,18.90
2022-08-11T00:32:42.997Z,18.90
2022-08-11T00:35:52.013Z,18.90
2022-08-11T00:38:03.548Z,18.90
2022-08-11T00:40:51.366Z,18.80
2022-08-11T00:43:36.207Z,18.80
2022-08-11T00:46:22.642Z,18.80
2022-08-11T00:49:14.373Z,18.80
2022-08-11T00:52:04.759Z,18.80
2022-08-11T00:54:39.731Z,18.80
2022-08-11T00:57:37.573Z,18.70
2022-08-11T01:00:11.900Z,18.80
2022-08-11T01:03:18.655Z,18.80
2022-08-11T01:06:25.644Z,18.70
2022-08-11T01:09:17.759Z,18.70
2022-08-11T01:12:14.719Z,18.60
2022-08-11T01:15:05.678Z,18.60
2022-08-11T01:17:51.399Z,18.60
2022-08-11T01:20:49.606Z,18.60
2022-08-11T01:23:36.039Z,18.60
2022-08-11T01:26:34.361Z,18.50
2022-08-11T01:29:19.763Z,18.60
2022-08-11T01:32:02.313Z,18.60
2022-08-11T01:34:57.832Z,18.60
2022-08-11T01:37:48.104Z,18.50
2022-08-11T01:40:53.290Z,18.60
2022-08-11T01:44:01.420Z,18.60
2022-08-11T01:46:40.423Z,18.60
2022-08-11T01:50:05.127Z,18.60
2022-08-11T01:52:18.888Z,18.70
2022-08-11T01:55:07.779Z,18.60
2022-08-11T01:57:53.664Z,18.00
2022-08-11T02:00:26.513Z,18.70
2022-08-11T02:02:59.477Z,18.70
2022-08-11T02:05:44.500Z,18.80
2022-08-11T02:08:33.060Z,18.80
2022-08-11T02:11:31.685Z,18.80
2022-08-11T02:14:15.534Z,18.90
2022-08-11T02:17:19.244Z,18.90
2022-08-11T02:20:33.707Z,18.90
2022-08-11T02:24:05.015Z,19.30
2022-08-11T02:26:34.368Z,18.90
2022-08-11T02:29:22.035Z,19.00
2022-08-11T02:32:35.549Z,18.90
2022-08-11T02:35:21.958Z,19.00
2022-08-11T02:37:52.083Z,18.90
2022-08-11T02:41:24.729Z,18.90
2022-08-11T02:44:12.236Z,19.00
2022-08-11T02:47:09.079Z,18.90
2022-08-11T02:50:06.177Z,19.00
2022-08-11T02:52:50.875Z,19.00
2022-08-11T02:55:44.660Z,19.00
2022-08-11T02:58:28.602Z,19.00
2022-08-11T03:01:11.700Z,19.00
2022-08-11T03:04:00.808Z,19.00
2022-08-11T03:07:29.002Z,19.10
2022-08-11T03:10:27.264Z,19.10
2022-08-11T03:13:26.010Z,19.10
2022-08-11T03:16:32.097Z,19.10
2022-08-11T03:19:02.438Z,19.10
2022-08-11T03:22:01.624Z,19.10
2022-08-11T03:24:46.584Z,19.20
2022-08-11T03:27:48.887Z,19.20
2022-08-11T03:30:19.019Z,19.20
2022-08-11T03:33:23.435Z,19.20
2022-08-11T03:36:09.504Z,19.10
2022-08-11T03:39:30.574Z,19.20
2022-08-11T03:42:12.972Z,19.20
2022-08-11T03:44:48.529Z,19.20
2022-08-11T03:47:32.232Z,19.30
2022-08-11T03:50:31.035Z,19.40
2022-08-11T03:53:16.601Z,19.40
2022-08-11T03:56:05.166Z,19.40
2022-08-11T03:59:01.900Z,19.40
2022-08-11T04:01:50.748Z,19.40
2022-08-11T04:04:45.162Z,19.50
2022-08-11T04:07:39.600Z,19.50
2022-08-11T04:10:35.991Z,19.50
2022-08-11T04:13:37.036Z,19.60
2022-08-11T04:16:45.527Z,19.50
2022-08-11T04:19:37.822Z,19.50
2022-08-11T04:22:26.772Z,19.50
2022-08-11T04:25:18.411Z,19.60
2022-08-11T04:27:54.705Z,19.60
2022-08-11T04:30:44.233Z,19.60
2022-08-11T04:33:41.909Z,19.60
2022-08-11T04:37:05.040Z,19.70
2022-08-11T04:40:20.348Z,19.70
2022-08-11T04:43:22.656Z,19.70
2022-08-11T04:46:15.145Z,19.80
2022-08-11T04:49:26.272Z,19.70
2022-08-11T04:52:42.481Z,19.60
2022-08-11T04:55:40.491Z,19.70
2022-08-11T04:58:40.251Z,19.70
2022-08-11T05:01:41.871Z,19.80
2022-08-11T05:04:46.907Z,19.80
2022-08-11T05:07:46.111Z,19.90
2022-08-11T05:10:13.651Z,19.80
2022-08-11T05:12:50.375Z,19.80
2022-08-11T05:15:44.659Z,19.00
2022-08-11T05:18:36.048Z,19.90
2022-08-11T05:21:27.477Z,19.90
2022-08-11T05:24:39.872Z,20.50
2022-08-11T05:27:31.029Z,20.10
2022-08-11T05:35:06.778Z,20.00
